sensor_id;sensor_type;location;lat;lon;timestamp;pressure;altitude;pressure_sealevel;temperature;humidity
22755;BME280;11544;42.020;23.094;2023-04-06T00:01:08;96986.41;;;4.70;64.45
22755;BME280;11544;42.020;23.094;2023-04-06T00:03:35;96982.97;;;4.69;64.35
22755;BME280;11544;42.020;23.094;2023-04-06T00:06:03;96987.50;;;4.55;64.58
22755;BME280;11544;42.020;23.094;2023-04-06T00:08:30;96976.47;;;4.45;65.36
22755;BME280;11544;42.020;23.094;2023-04-06T00:10:57;96973.56;;;4.65;65.16
22755;BME280;11544;42.020;23.094;2023-04-06T00:13:24;96973.31;;;4.82;65.13
22755;BME280;11544;42.020;23.094;2023-04-06T00:15:52;96967.28;;;4.81;64.46
22755;BME280;11544;42.020;23.094;2023-04-06T00:18:19;96966.44;;;4.81;64.44
22755;BME280;11544;42.020;23.094;2023-04-06T00:20:47;96968.47;;;4.60;64.72
22755;BME280;11544;42.020;23.094;2023-04-06T00:23:14;96963.28;;;4.62;65.53
22755;BME280;11544;42.020;23.094;2023-04-06T00:25:42;96963.84;;;4.79;64.99
22755;BME280;11544;42.020;23.094;2023-04-06T00:28:09;96959.16;;;5.03;64.18
22755;BME280;11544;42.020;23.094;2023-04-06T00:30:36;96958.34;;;5.01;63.78
22755;BME280;11544;42.020;23.094;2023-04-06T00:33:03;96966.28;;;4.88;64.51
22755;BME280;11544;42.020;23.094;2023-04-06T00:35:30;96954.63;;;5.16;63.09
22755;BME280;11544;42.020;23.094;2023-04-06T00:37:57;96947.19;;;4.99;62.77
22755;BME280;11544;42.020;23.094;2023-04-06T00:40:24;96960.19;;;4.94;62.60
22755;BME280;11544;42.020;23.094;2023-04-06T00:42:51;96945.44;;;5.01;62.86
22755;BME280;11544;42.020;23.094;2023-04-06T00:45:18;96948.34;;;4.82;62.76
22755;BME280;11544;42.020;23.094;2023-04-06T00:47:46;96945.97;;;5.18;62.05
22755;BME280;11544;42.020;23.094;2023-04-06T00:50:13;96948.22;;;4.88;62.88
22755;BME280;11544;42.020;23.094;2023-04-06T00:52:40;96950.44;;;4.57;64.19
22755;BME280;11544;42.020;23.094;2023-04-06T00:55:07;96951.06;;;4.72;64.14
22755;BME280;11544;42.020;23.094;2023-04-06T00:57:34;96946.19;;;4.53;64.41
22755;BME280;11544;42.020;23.094;2023-04-06T01:00:02;96951.91;;;4.75;64.38
22755;BME280;11544;42.020;23.094;2023-04-06T01:02:33;96947.94;;;4.53;64.44
22755;BME280;11544;42.020;23.094;2023-04-06T01:05:00;96952.66;;;4.82;63.99
22755;BME280;11544;42.020;23.094;2023-04-06T01:07:28;96948.91;;;4.47;64.62
22755;BME280;11544;42.020;23.094;2023-04-06T01:09:55;96945.19;;;4.63;63.79
22755;BME280;11544;42.020;23.094;2023-04-06T01:12:22;96941.03;;;4.53;63.88
22755;BME280;11544;42.020;23.094;2023-04-06T01:14:49;96939.06;;;4.71;63.65
22755;BME280;11544;42.020;23.094;2023-04-06T01:17:17;96937.63;;;4.53;64.18
22755;BME280;11544;42.020;23.094;2023-04-06T01:19:44;96939.34;;;4.52;64.29
22755;BME280;11544;42.020;23.094;2023-04-06T01:22:16;96933.41;;;4.47;63.30
22755;BME280;11544;42.020;23.094;2023-04-06T01:24:44;96940.59;;;4.25;64.35
22755;BME280;11544;42.020;23.094;2023-04-06T01:27:12;96932.78;;;4.33;63.87
22755;BME280;11544;42.020;23.094;2023-04-06T01:29:39;96931.31;;;4.71;64.58
22755;BME280;11544;42.020;23.094;2023-04-06T01:32:09;96926.84;;;4.80;63.19
22755;BME280;11544;42.020;23.094;2023-04-06T01:34:37;96920.47;;;4.49;64.03
22755;BME280;11544;42.020;23.094;2023-04-06T01:37:04;96928.34;;;4.41;64.78
22755;BME280;11544;42.020;23.094;2023-04-06T01:39:31;96929.22;;;4.40;65.11
22755;BME280;11544;42.020;23.094;2023-04-06T01:41:58;96933.56;;;4.38;64.77
22755;BME280;11544;42.020;23.094;2023-04-06T01:44:25;96924.75;;;4.50;64.27
22755;BME280;11544;42.020;23.094;2023-04-06T01:46:52;96921.88;;;4.12;64.00
22755;BME280;11544;42.020;23.094;2023-04-06T01:49:19;96922.59;;;4.22;64.69
22755;BME280;11544;42.020;23.094;2023-04-06T01:51:46;96920.72;;;4.33;65.25
22755;BME280;11544;42.020;23.094;2023-04-06T01:54:13;96915.34;;;4.45;64.92
22755;BME280;11544;42.020;23.094;2023-04-06T01:56:41;96904.75;;;4.62;64.53
22755;BME280;11544;42.020;23.094;2023-04-06T01:59:08;96915.16;;;4.58;64.97
22755;BME280;11544;42.020;23.094;2023-04-06T02:01:36;96901.88;;;4.28;65.68
22755;BME280;11544;42.020;23.094;2023-04-06T02:04:03;96901.38;;;4.59;65.41
22755;BME280;11544;42.020;23.094;2023-04-06T02:06:30;96907.59;;;4.47;64.85
22755;BME280;11544;42.020;23.094;2023-04-06T02:08:57;96903.06;;;4.60;64.75
22755;BME280;11544;42.020;23.094;2023-04-06T02:11:24;96908.38;;;4.52;64.82
22755;BME280;11544;42.020;23.094;2023-04-06T02:14:00;96900.69;;;4.49;65.16
22755;BME280;11544;42.020;23.094;2023-04-06T02:16:27;96911.88;;;4.48;64.69
22755;BME280;11544;42.020;23.094;2023-04-06T02:18:55;96901.47;;;4.54;64.54
22755;BME280;11544;42.020;23.094;2023-04-06T02:21:22;96908.06;;;4.16;64.87
22755;BME280;11544;42.020;23.094;2023-04-06T02:23:49;96906.34;;;4.17;63.69
22755;BME280;11544;42.020;23.094;2023-04-06T02:26:16;96906.19;;;4.26;64.51
22755;BME280;11544;42.020;23.094;2023-04-06T02:28:47;96906.06;;;4.35;63.85
22755;BME280;11544;42.020;23.094;2023-04-06T02:31:15;96901.81;;;4.31;64.38
22755;BME280;11544;42.020;23.094;2023-04-06T02:33:43;96902.50;;;4.42;65.20
22755;BME280;11544;42.020;23.094;2023-04-06T02:36:09;96906.06;;;4.34;65.05
22755;BME280;11544;42.020;23.094;2023-04-06T02:38:37;96905.09;;;4.41;64.84
22755;BME280;11544;42.020;23.094;2023-04-06T02:41:04;96902.44;;;4.47;64.15
22755;BME280;11544;42.020;23.094;2023-04-06T02:43:32;96900.53;;;4.58;63.64
22755;BME280;11544;42.020;23.094;2023-04-06T02:45:59;96901.59;;;4.47;63.55
22755;BME280;11544;42.020;23.094;2023-04-06T02:48:27;96901.47;;;4.53;63.20
22755;BME280;11544;42.020;23.094;2023-04-06T02:50:54;96900.22;;;4.22;63.28
22755;BME280;11544;42.020;23.094;2023-04-06T02:53:22;96896.03;;;4.15;63.38
22755;BME280;11544;42.020;23.094;2023-04-06T02:55:49;96904.75;;;4.08;63.56
22755;BME280;11544;42.020;23.094;2023-04-06T02:58:16;96902.28;;;4.00;64.02
22755;BME280;11544;42.020;23.094;2023-04-06T03:00:43;96893.16;;;4.35;63.56
22755;BME280;11544;42.020;23.094;2023-04-06T03:03:11;96902.09;;;4.14;63.01
22755;BME280;11544;42.020;23.094;2023-04-06T03:05:38;96902.28;;;4.00;64.31
22755;BME280;11544;42.020;23.094;2023-04-06T03:08:05;96899.09;;;4.39;64.04
22755;BME280;11544;42.020;23.094;2023-04-06T03:10:32;96896.56;;;4.37;63.48
22755;BME280;11544;42.020;23.094;2023-04-06T03:13:02;96904.06;;;3.97;64.07
22755;BME280;11544;42.020;23.094;2023-04-06T03:15:29;96894.50;;;4.03;64.08
22755;BME280;11544;42.020;23.094;2023-04-06T03:17:57;96902.91;;;3.54;65.16
22755;BME280;11544;42.020;23.094;2023-04-06T03:20:26;96897.19;;;3.96;65.17
22755;BME280;11544;42.020;23.094;2023-04-06T03:22:53;96891.41;;;3.78;65.38
22755;BME280;11544;42.020;23.094;2023-04-06T03:25:20;96895.69;;;3.78;65.01
22755;BME280;11544;42.020;23.094;2023-04-06T03:27:47;96893.84;;;3.89;64.46
22755;BME280;11544;42.020;23.094;2023-04-06T03:30:14;96894.53;;;4.00;63.85
22755;BME280;11544;42.020;23.094;2023-04-06T03:32:46;96884.84;;;4.16;63.38
22755;BME280;11544;42.020;23.094;2023-04-06T03:35:13;96889.03;;;4.23;63.80
22755;BME280;11544;42.020;23.094;2023-04-06T03:37:41;96883.69;;;4.36;62.98
22755;BME280;11544;42.020;23.094;2023-04-06T03:40:08;96885.38;;;4.38;63.70
22755;BME280;11544;42.020;23.094;2023-04-06T03:42:35;96885.84;;;4.08;64.51
22755;BME280;11544;42.020;23.094;2023-04-06T03:45:03;96882.41;;;4.06;64.69
22755;BME280;11544;42.020;23.094;2023-04-06T03:47:30;96882.41;;;4.07;64.78
22755;BME280;11544;42.020;23.094;2023-04-06T03:50:00;96890.38;;;4.48;64.20
22755;BME280;11544;42.020;23.094;2023-04-06T03:52:27;96890.59;;;4.32;64.18
22755;BME280;11544;42.020;23.094;2023-04-06T03:54:54;96882.94;;;4.29;64.29
22755;BME280;11544;42.020;23.094;2023-04-06T03:57:21;96887.44;;;4.15;64.61
22755;BME280;11544;42.020;23.094;2023-04-06T03:59:50;96884.88;;;4.15;64.58
22755;BME280;11544;42.020;23.094;2023-04-06T04:02:17;96885.56;;;4.28;65.17
22755;BME280;11544;42.020;23.094;2023-04-06T04:04:47;96886.47;;;4.22;64.71
22755;BME280;11544;42.020;23.094;2023-04-06T04:07:14;96886.69;;;4.08;64.92
22755;BME280;11544;42.020;23.094;2023-04-06T04:09:41;96883.44;;;3.95;65.68
22755;BME280;11544;42.020;23.094;2023-04-06T04:12:08;96884.16;;;4.07;64.45
22755;BME280;11544;42.020;23.094;2023-04-06T04:14:34;96879.66;;;4.18;64.79
22755;BME280;11544;42.020;23.094;2023-04-06T04:17:01;96880.03;;;3.93;65.16
22755;BME280;11544;42.020;23.094;2023-04-06T04:19:28;96879.06;;;4.00;64.84
22755;BME280;11544;42.020;23.094;2023-04-06T04:21:55;96883.56;;;4.43;64.13
22755;BME280;11544;42.020;23.094;2023-04-06T04:24:22;96877.69;;;4.34;63.82
22755;BME280;11544;42.020;23.094;2023-04-06T04:26:49;96882.78;;;4.40;63.30
22755;BME280;11544;42.020;23.094;2023-04-06T04:29:16;96880.22;;;4.37;62.67
22755;BME280;11544;42.020;23.094;2023-04-06T04:31:46;96883.91;;;4.22;64.30
22755;BME280;11544;42.020;23.094;2023-04-06T04:34:14;96881.50;;;4.10;64.44
22755;BME280;11544;42.020;23.094;2023-04-06T04:36:42;96894.09;;;4.30;64.26
22755;BME280;11544;42.020;23.094;2023-04-06T04:39:10;96889.69;;;4.36;63.97
22755;BME280;11544;42.020;23.094;2023-04-06T04:41:37;96887.44;;;4.16;64.63
22755;BME280;11544;42.020;23.094;2023-04-06T04:44:05;96889.75;;;4.33;64.32
22755;BME280;11544;42.020;23.094;2023-04-06T04:46:35;96895.13;;;4.18;64.70
22755;BME280;11544;42.020;23.094;2023-04-06T04:49:05;96896.44;;;4.47;63.71
22755;BME280;11544;42.020;23.094;2023-04-06T04:51:35;96888.00;;;4.35;63.95
22755;BME280;11544;42.020;23.094;2023-04-06T04:54:05;96894.78;;;4.41;64.50
22755;BME280;11544;42.020;23.094;2023-04-06T04:56:32;96891.63;;;4.23;63.66
22755;BME280;11544;42.020;23.094;2023-04-06T04:58:59;96892.75;;;4.06;65.00
22755;BME280;11544;42.020;23.094;2023-04-06T05:01:26;96902.47;;;6.58;81.11
22755;BME280;11544;42.020;23.094;2023-04-06T05:04:09;96886.59;;;7.07;73.29
22755;BME280;11544;42.020;23.094;2023-04-06T05:06:36;96897.28;;;4.97;64.73
22755;BME280;11544;42.020;23.094;2023-04-06T05:09:03;96896.06;;;4.68;64.70
22755;BME280;11544;42.020;23.094;2023-04-06T05:11:30;96894.72;;;4.44;64.66
22755;BME280;11544;42.020;23.094;2023-04-06T05:13:57;96895.47;;;4.52;64.10
22755;BME280;11544;42.020;23.094;2023-04-06T05:16:27;96906.22;;;4.24;65.07
22755;BME280;11544;42.020;23.094;2023-04-06T05:18:54;96901.88;;;4.28;64.96
22755;BME280;11544;42.020;23.094;2023-04-06T05:21:23;96902.66;;;4.32;65.77
22755;BME280;11544;42.020;23.094;2023-04-06T05:23:52;96905.53;;;4.13;65.80
22755;BME280;11544;42.020;23.094;2023-04-06T05:26:20;96906.22;;;4.24;65.69
22755;BME280;11544;42.020;23.094;2023-04-06T05:28:48;96902.44;;;4.45;65.27
22755;BME280;11544;42.020;23.094;2023-04-06T05:31:15;96905.09;;;4.41;65.70
22755;BME280;11544;42.020;23.094;2023-04-06T05:33:43;96909.19;;;4.54;64.82
22755;BME280;11544;42.020;23.094;2023-04-06T05:36:10;96905.69;;;4.58;64.41
22755;BME280;11544;42.020;23.094;2023-04-06T05:38:40;96896.94;;;4.67;63.91
22755;BME280;11544;42.020;23.094;2023-04-06T05:41:07;96893.41;;;4.73;63.18
22755;BME280;11544;42.020;23.094;2023-04-06T05:43:34;96885.53;;;4.80;61.93
22755;BME280;11544;42.020;23.094;2023-04-06T05:46:01;96886.81;;;5.03;62.69
22755;BME280;11544;42.020;23.094;2023-04-06T05:48:28;96885.28;;;5.38;61.44
22755;BME280;11544;42.020;23.094;2023-04-06T05:50:55;96882.72;;;5.36;60.91
22755;BME280;11544;42.020;23.094;2023-04-06T05:53:23;96888.69;;;5.40;61.45
22755;BME280;11544;42.020;23.094;2023-04-06T05:55:53;96885.94;;;5.49;61.29
22755;BME280;11544;42.020;23.094;2023-04-06T05:58:20;96885.59;;;5.64;60.67
22755;BME280;11544;42.020;23.094;2023-04-06T06:00:47;96892.03;;;5.45;59.77
22755;BME280;11544;42.020;23.094;2023-04-06T06:03:14;96893.03;;;5.39;59.81
22755;BME280;11544;42.020;23.094;2023-04-06T06:05:42;96883.84;;;5.24;59.15
22755;BME280;11544;42.020;23.094;2023-04-06T06:08:09;96892.84;;;5.03;60.88
22755;BME280;11544;42.020;23.094;2023-04-06T06:10:38;96894.44;;;5.54;60.04
22755;BME280;11544;42.020;23.094;2023-04-06T06:13:05;96891.88;;;5.52;60.07
22755;BME280;11544;42.020;23.094;2023-04-06T06:15:33;96891.75;;;5.60;59.61
22755;BME280;11544;42.020;23.094;2023-04-06T06:18:00;96891.03;;;5.92;58.01
22755;BME280;11544;42.020;23.094;2023-04-06T06:20:27;96889.63;;;5.78;57.58
22755;BME280;11544;42.020;23.094;2023-04-06T06:22:58;96886.06;;;5.83;58.25
22755;BME280;11544;42.020;23.094;2023-04-06T06:25:32;96891.56;;;5.69;58.45
22755;BME280;11544;42.020;23.094;2023-04-06T06:28:02;96891.28;;;6.21;57.07
22755;BME280;11544;42.020;23.094;2023-04-06T06:30:29;96886.28;;;6.50;57.24
22755;BME280;11544;42.020;23.094;2023-04-06T06:32:56;96889.00;;;6.46;56.13
22755;BME280;11544;42.020;23.094;2023-04-06T06:35:37;96883.06;;;6.41;56.36
22755;BME280;11544;42.020;23.094;2023-04-06T06:38:14;96884.28;;;6.94;54.36
22755;BME280;11544;42.020;23.094;2023-04-06T06:40:41;96886.75;;;6.99;53.79
22755;BME280;11544;42.020;23.094;2023-04-06T06:43:08;96871.88;;;6.74;54.65
22755;BME280;11544;42.020;23.094;2023-04-06T06:45:38;96883.16;;;7.37;53.43
22755;BME280;11544;42.020;23.094;2023-04-06T06:48:08;96874.00;;;8.13;52.12
22755;BME280;11544;42.020;23.094;2023-04-06T06:50:36;96881.19;;;7.46;51.61
22755;BME280;11544;42.020;23.094;2023-04-06T06:53:03;96875.53;;;7.91;51.77
22755;BME280;11544;42.020;23.094;2023-04-06T06:55:30;96873.94;;;8.43;51.06
22755;BME280;11544;42.020;23.094;2023-04-06T06:57:57;96874.84;;;7.85;49.70
22755;BME280;11544;42.020;23.094;2023-04-06T07:00:24;96867.16;;;7.82;51.37
22755;BME280;11544;42.020;23.094;2023-04-06T07:02:51;96871.88;;;7.98;50.22
22755;BME280;11544;42.020;23.094;2023-04-06T07:05:27;96861.06;;;8.38;49.25
22755;BME280;11544;42.020;23.094;2023-04-06T07:07:55;96865.22;;;8.72;49.68
22755;BME280;11544;42.020;23.094;2023-04-06T07:10:22;96872.13;;;8.18;48.19
22755;BME280;11544;42.020;23.094;2023-04-06T07:12:49;96861.88;;;8.68;47.94
22755;BME280;11544;42.020;23.094;2023-04-06T07:15:17;96863.22;;;9.05;48.03
22755;BME280;11544;42.020;23.094;2023-04-06T07:17:44;96861.84;;;9.44;47.21
22755;BME280;11544;42.020;23.094;2023-04-06T07:20:12;96868.22;;;9.82;45.90
22755;BME280;11544;42.020;23.094;2023-04-06T07:22:42;96859.53;;;9.36;45.91
22755;BME280;11544;42.020;23.094;2023-04-06T07:25:09;96870.84;;;8.32;48.12
22755;BME280;11544;42.020;23.094;2023-04-06T07:27:36;96855.69;;;8.98;48.25
22755;BME280;11544;42.020;23.094;2023-04-06T07:30:04;96852.13;;;9.00;48.83
22755;BME280;11544;42.020;23.094;2023-04-06T07:32:32;96855.97;;;9.62;47.76
22755;BME280;11544;42.020;23.094;2023-04-06T07:35:01;96854.69;;;9.96;45.65
22755;BME280;11544;42.020;23.094;2023-04-06T07:37:28;96843.06;;;9.83;46.59
22755;BME280;11544;42.020;23.094;2023-04-06T07:39:55;96852.06;;;10.18;46.08
22755;BME280;11544;42.020;23.094;2023-04-06T07:42:22;96846.56;;;9.35;47.07
22755;BME280;11544;42.020;23.094;2023-04-06T07:44:49;96842.84;;;9.65;47.38
22755;BME280;11544;42.020;23.094;2023-04-06T07:47:16;96840.22;;;9.65;48.25
22755;BME280;11544;42.020;23.094;2023-04-06T07:49:43;96848.72;;;9.47;47.49
22755;BME280;11544;42.020;23.094;2023-04-06T07:52:11;96842.91;;;9.64;47.00
22755;BME280;11544;42.020;23.094;2023-04-06T07:54:37;96838.34;;;9.92;47.29
22755;BME280;11544;42.020;23.094;2023-04-06T07:57:04;96841.28;;;9.83;46.93
22755;BME280;11544;42.020;23.094;2023-04-06T07:59:34;96840.97;;;9.69;47.60
22755;BME280;11544;42.020;23.094;2023-04-06T08:02:15;96848.09;;;9.17;45.35
22755;BME280;11544;42.020;23.094;2023-04-06T08:04:44;96845.94;;;9.75;45.80
22755;BME280;11544;42.020;23.094;2023-04-06T08:07:13;96846.88;;;10.18;45.62
22755;BME280;11544;42.020;23.094;2023-04-06T08:09:40;96830.28;;;10.85;45.29
22755;BME280;11544;42.020;23.094;2023-04-06T08:12:08;96832.41;;;11.16;43.92
22755;BME280;11544;42.020;23.094;2023-04-06T08:14:34;96841.13;;;10.10;44.04
22755;BME280;11544;42.020;23.094;2023-04-06T08:17:01;96833.00;;;9.95;44.68
22755;BME280;11544;42.020;23.094;2023-04-06T08:19:31;96826.59;;;11.10;44.66
22755;BME280;11544;42.020;23.094;2023-04-06T08:21:58;96819.53;;;11.32;43.13
22755;BME280;11544;42.020;23.094;2023-04-06T08:24:25;96815.16;;;11.33;42.57
22755;BME280;11544;42.020;23.094;2023-04-06T08:26:52;96822.81;;;9.89;45.20
22755;BME280;11544;42.020;23.094;2023-04-06T08:29:20;96807.53;;;10.68;45.70
22755;BME280;11544;42.020;23.094;2023-04-06T08:31:46;96810.53;;;11.19;43.34
22755;BME280;11544;42.020;23.094;2023-04-06T08:34:14;96800.25;;;11.16;44.27
22755;BME280;11544;42.020;23.094;2023-04-06T08:36:41;96798.50;;;10.96;43.34
22755;BME280;11544;42.020;23.094;2023-04-06T08:39:08;96798.97;;;10.44;44.80
22755;BME280;11544;42.020;23.094;2023-04-06T08:41:36;96799.34;;;9.91;44.81
22755;BME280;11544;42.020;23.094;2023-04-06T08:44:03;96790.00;;;10.51;44.35
22755;BME280;11544;42.020;23.094;2023-04-06T08:46:31;96787.41;;;11.11;45.29
22755;BME280;11544;42.020;23.094;2023-04-06T08:49:02;96783.91;;;11.31;44.09
22755;BME280;11544;42.020;23.094;2023-04-06T08:51:30;96776.53;;;11.41;44.10
22755;BME280;11544;42.020;23.094;2023-04-06T08:54:00;96793.84;;;11.80;43.94
22755;BME280;11544;42.020;23.094;2023-04-06T08:56:28;96791.16;;;10.85;41.82
22755;BME280;11544;42.020;23.094;2023-04-06T08:58:55;96774.75;;;11.41;44.44
22755;BME280;11544;42.020;23.094;2023-04-06T09:01:27;96777.47;;;11.57;43.06
22755;BME280;11544;42.020;23.094;2023-04-06T09:03:59;96782.16;;;11.32;44.38
22755;BME280;11544;42.020;23.094;2023-04-06T09:06:35;96779.66;;;10.06;43.45
22755;BME280;11544;42.020;23.094;2023-04-06T09:09:04;96766.97;;;11.21;43.33
22755;BME280;11544;42.020;23.094;2023-04-06T09:11:42;96774.38;;;11.30;43.87
22755;BME280;11544;42.020;23.094;2023-04-06T09:14:10;96778.16;;;11.43;44.15
22755;BME280;11544;42.020;23.094;2023-04-06T09:16:42;96773.50;;;10.71;43.10
22755;BME280;11544;42.020;23.094;2023-04-06T09:19:09;96773.25;;;9.92;44.01
22755;BME280;11544;42.020;23.094;2023-04-06T09:21:37;96761.19;;;10.75;44.12
22755;BME280;11544;42.020;23.094;2023-04-06T09:24:08;96755.19;;;11.31;43.36
22755;BME280;11544;42.020;23.094;2023-04-06T09:26:47;96755.63;;;10.83;42.11
22755;BME280;11544;42.020;23.094;2023-04-06T09:29:24;96747.91;;;11.00;42.11
22755;BME280;11544;42.020;23.094;2023-04-06T09:32:08;96739.47;;;11.33;42.96
22755;BME280;11544;42.020;23.094;2023-04-06T09:34:40;96741.94;;;11.55;42.49
22755;BME280;11544;42.020;23.094;2023-04-06T09:37:14;96737.38;;;11.41;43.48
22755;BME280;11544;42.020;23.094;2023-04-06T09:39:42;96735.50;;;11.24;42.96
22755;BME280;11544;42.020;23.094;2023-04-06T09:42:09;96727.84;;;11.40;41.92
22755;BME280;11544;42.020;23.094;2023-04-06T09:44:37;96729.81;;;11.35;42.75
22755;BME280;11544;42.020;23.094;2023-04-06T09:47:06;96734.50;;;11.64;42.37
22755;BME280;11544;42.020;23.094;2023-04-06T09:49:34;96722.53;;;11.60;44.74
22755;BME280;11544;42.020;23.094;2023-04-06T09:52:06;96728.63;;;11.42;43.74
22755;BME280;11544;42.020;23.094;2023-04-06T09:54:35;96729.41;;;10.86;44.10
22755;BME280;11544;42.020;23.094;2023-04-06T09:57:37;96729.38;;;11.06;43.12
22755;BME280;11544;42.020;23.094;2023-04-06T10:00:09;96727.41;;;11.30;42.21
22755;BME280;11544;42.020;23.094;2023-04-06T10:08:12;96722.00;;;11.16;43.84
22755;BME280;11544;42.020;23.094;2023-04-06T10:10:41;96724.81;;;11.30;42.96
22755;BME280;11544;42.020;23.094;2023-04-06T10:13:11;96716.34;;;11.06;43.99
22755;BME280;11544;42.020;23.094;2023-04-06T10:15:38;96711.56;;;11.35;45.19
22755;BME280;11544;42.020;23.094;2023-04-06T10:18:06;96720.78;;;11.42;43.80
22755;BME280;11544;42.020;23.094;2023-04-06T10:21:12;96714.72;;;11.41;43.70
22755;BME280;11544;42.020;23.094;2023-04-06T10:23:43;96708.78;;;11.57;42.32
22755;BME280;11544;42.020;23.094;2023-04-06T10:26:15;96705.38;;;11.55;43.35
22755;BME280;11544;42.020;23.094;2023-04-06T10:28:45;96711.75;;;10.92;42.03
22755;BME280;11544;42.020;23.094;2023-04-06T10:31:12;96706.91;;;10.23;43.34
22755;BME280;11544;42.020;23.094;2023-04-06T10:33:40;96699.72;;;10.08;43.80
22755;BME280;11544;42.020;23.094;2023-04-06T10:36:15;96705.22;;;10.63;43.57
22755;BME280;11544;42.020;23.094;2023-04-06T10:38:56;96704.97;;;10.88;44.17
22755;BME280;11544;42.020;23.094;2023-04-06T10:41:33;96696.13;;;11.30;42.58
22755;BME280;11544;42.020;23.094;2023-04-06T10:44:01;96694.03;;;11.56;43.01
22755;BME280;11544;42.020;23.094;2023-04-06T10:46:32;96693.53;;;11.48;42.74
22755;BME280;11544;42.020;23.094;2023-04-06T10:49:12;96688.53;;;11.43;44.35
22755;BME280;11544;42.020;23.094;2023-04-06T10:51:39;96675.03;;;11.71;43.63
22755;BME280;11544;42.020;23.094;2023-04-06T10:54:07;96680.94;;;11.38;41.62
22755;BME280;11544;42.020;23.094;2023-04-06T10:56:40;96670.63;;;11.54;41.61
22755;BME280;11544;42.020;23.094;2023-04-06T10:59:07;96685.09;;;11.05;43.21
22755;BME280;11544;42.020;23.094;2023-04-06T11:01:34;96684.63;;;10.57;43.65
22755;BME280;11544;42.020;23.094;2023-04-06T11:04:02;96673.44;;;10.74;44.40
22755;BME280;11544;42.020;23.094;2023-04-06T11:06:30;96682.13;;;10.13;43.46
22755;BME280;11544;42.020;23.094;2023-04-06T11:09:00;96678.53;;;10.37;43.90
22755;BME280;11544;42.020;23.094;2023-04-06T11:11:28;96676.38;;;10.47;43.95
22755;BME280;11544;42.020;23.094;2023-04-06T11:13:59;96676.66;;;10.99;43.61
22755;BME280;11544;42.020;23.094;2023-04-06T11:16:29;96672.81;;;10.69;42.60
22755;BME280;11544;42.020;23.094;2023-04-06T11:18:58;96670.41;;;10.64;43.11
22755;BME280;11544;42.020;23.094;2023-04-06T11:21:36;96655.75;;;11.37;42.82
22755;BME280;11544;42.020;23.094;2023-04-06T11:24:22;96662.34;;;11.27;43.37
22755;BME280;11544;42.020;23.094;2023-04-06T11:26:51;96658.88;;;11.08;43.83
22755;BME280;11544;42.020;23.094;2023-04-06T11:31:51;96659.16;;;11.20;43.77
22755;BME280;11544;42.020;23.094;2023-04-06T11:34:20;96644.63;;;11.70;42.98
22755;BME280;11544;42.020;23.094;2023-04-06T11:36:53;96647.38;;;12.03;41.00
22755;BME280;11544;42.020;23.094;2023-04-06T11:39:22;96645.47;;;11.71;41.14
22755;BME280;11544;42.020;23.094;2023-04-06T11:41:52;96636.00;;;11.85;41.26
22755;BME280;11544;42.020;23.094;2023-04-06T11:44:32;96640.34;;;11.50;42.97
22755;BME280;11544;42.020;23.094;2023-04-06T11:47:06;96650.72;;;11.52;42.79
22755;BME280;11544;42.020;23.094;2023-04-06T11:49:37;96643.06;;;11.49;42.76
22755;BME280;11544;42.020;23.094;2023-04-06T11:52:15;96643.09;;;11.30;43.78
22755;BME280;11544;42.020;23.094;2023-04-06T11:54:49;96653.13;;;11.20;42.46
22755;BME280;11544;42.020;23.094;2023-04-06T11:57:21;96636.03;;;11.32;43.50
22755;BME280;11544;42.020;23.094;2023-04-06T11:59:49;96642.44;;;11.43;42.76
22755;BME280;11544;42.020;23.094;2023-04-06T12:02:19;96646.41;;;11.14;42.22
22755;BME280;11544;42.020;23.094;2023-04-06T12:04:47;96634.66;;;11.06;42.75
22755;BME280;11544;42.020;23.094;2023-04-06T12:07:14;96637.88;;;11.11;43.62
22755;BME280;11544;42.020;23.094;2023-04-06T12:09:42;96628.22;;;11.32;43.72
22755;BME280;11544;42.020;23.094;2023-04-06T12:12:11;96624.56;;;11.53;42.82
22755;BME280;11544;42.020;23.094;2023-04-06T12:14:38;96625.91;;;11.07;44.45
22755;BME280;11544;42.020;23.094;2023-04-06T12:17:05;96632.56;;;11.31;43.57
22755;BME280;11544;42.020;23.094;2023-04-06T12:19:33;96630.41;;;11.22;43.57
22755;BME280;11544;42.020;23.094;2023-04-06T12:22:06;96633.13;;;11.19;43.80
22755;BME280;11544;42.020;23.094;2023-04-06T12:24:34;96631.63;;;11.69;42.74
22755;BME280;11544;42.020;23.094;2023-04-06T12:27:01;96617.50;;;11.73;42.35
22755;BME280;11544;42.020;23.094;2023-04-06T12:29:37;96634.31;;;11.31;43.72
22755;BME280;11544;42.020;23.094;2023-04-06T12:32:04;96637.38;;;11.21;43.32
22755;BME280;11544;42.020;23.094;2023-04-06T12:34:32;96625.16;;;11.41;42.97
22755;BME280;11544;42.020;23.094;2023-04-06T12:37:00;96633.06;;;11.57;43.42
22755;BME280;11544;42.020;23.094;2023-04-06T12:39:28;96633.94;;;10.83;42.59
22755;BME280;11544;42.020;23.094;2023-04-06T12:41:55;96625.84;;;11.08;44.39
22755;BME280;11544;42.020;23.094;2023-04-06T12:44:23;96634.84;;;11.20;43.51
22755;BME280;11544;42.020;23.094;2023-04-06T12:46:52;96636.47;;;10.85;43.23
22755;BME280;11544;42.020;23.094;2023-04-06T12:49:19;96633.72;;;10.88;42.52
22755;BME280;11544;42.020;23.094;2023-04-06T12:51:49;96630.91;;;10.92;45.04
22755;BME280;11544;42.020;23.094;2023-04-06T12:54:16;96625.28;;;10.83;43.91
22755;BME280;11544;42.020;23.094;2023-04-06T12:56:43;96630.16;;;10.51;44.10
22755;BME280;11544;42.020;23.094;2023-04-06T12:59:11;96630.09;;;10.52;44.49
22755;BME280;11544;42.020;23.094;2023-04-06T13:01:38;96627.78;;;10.65;44.67
22755;BME280;11544;42.020;23.094;2023-04-06T13:04:05;96628.06;;;10.18;45.63
22755;BME280;11544;42.020;23.094;2023-04-06T13:06:33;96622.06;;;10.38;44.80
22755;BME280;11544;42.020;23.094;2023-04-06T13:09:00;96621.28;;;10.36;46.03
22755;BME280;11544;42.020;23.094;2023-04-06T13:11:27;96623.16;;;10.12;45.93
22755;BME280;11544;42.020;23.094;2023-04-06T13:13:57;96620.69;;;10.29;45.65